RYR83UV LFBZ-EIDW
Flight info
| Callsign | RYR83UV |
|---|---|
| Flight time | 1h 55m |
| Altitude | 36000 |
| Route | VAVIX DCT CNA DCT MANAK DCT MUREL DCT NOZHU/N0433F370 DCT SHIRI/N0436F380 DCT UNFIT DCT PENWU DCT NICXI DCT LEMGU M17 VATRY VATRY4L |
| Aircraft | B738/M-SDE2E3FGHIRWXY/LB1 |
Departure
| Time | 2026-05-08 08:18 |
|---|---|
| Airport | Biarritz Pays Basque airport (LFBZ) |
Arrival
| Time | 2026-05-08 10:14 |
|---|---|
| Airport | Dublin Airport (EIDW) |
| Time | Latitude | Longitude | Altitude | Speed | Heading |
|---|---|---|---|---|---|
| 2026-05-08 07:56 | 43.47122 | -1.52922 | 244 ft | 0 kts | 359° |
| 2026-05-08 08:08 | 43.47112 | -1.52922 | 244 ft | 4 kts | 359° |
| 2026-05-08 08:08 | 43.47086 | -1.52922 | 244 ft | 2 kts | 360° |
| 2026-05-08 08:08 | 43.47062 | -1.52926 | 244 ft | 4 kts | 41° |
| 2026-05-08 08:08 | 43.47053 | -1.52955 | 244 ft | 4 kts | 88° |
| 2026-05-08 08:09 | 43.47053 | -1.52971 | 244 ft | 1 kts | 89° |
| 2026-05-08 08:09 | 43.47053 | -1.52972 | 244 ft | 0 kts | 89° |
| 2026-05-08 08:12 | 43.47053 | -1.52971 | 244 ft | 0 kts | 89° |
| 2026-05-08 08:12 | 43.47053 | -1.52951 | 244 ft | 4 kts | 89° |
| 2026-05-08 08:12 | 43.47049 | -1.52895 | 244 ft | 5 kts | 107° |
| 2026-05-08 08:13 | 43.47018 | -1.52845 | 244 ft | 8 kts | 144° |
| 2026-05-08 08:13 | 43.46992 | -1.52757 | 244 ft | 12 kts | 90° |
| 2026-05-08 08:13 | 43.46994 | -1.52617 | 244 ft | 17 kts | 89° |
| 2026-05-08 08:13 | 43.46996 | -1.52434 | 243 ft | 21 kts | 89° |
| 2026-05-08 08:14 | 43.46997 | -1.52284 | 242 ft | 11 kts | 89° |
| 2026-05-08 08:14 | 43.46971 | -1.52188 | 239 ft | 12 kts | 144° |
| 2026-05-08 08:14 | 43.46892 | -1.52172 | 238 ft | 12 kts | 175° |
| 2026-05-08 08:14 | 43.46840 | -1.52105 | 238 ft | 11 kts | 96° |
| 2026-05-08 08:15 | 43.46840 | -1.51999 | 238 ft | 11 kts | 89° |
| 2026-05-08 08:15 | 43.46840 | -1.51887 | 237 ft | 13 kts | 90° |
| 2026-05-08 08:15 | 43.46842 | -1.51748 | 235 ft | 16 kts | 88° |
| 2026-05-08 08:15 | 43.46847 | -1.51589 | 235 ft | 17 kts | 88° |
| 2026-05-08 08:16 | 43.46848 | -1.51429 | 235 ft | 17 kts | 88° |
| 2026-05-08 08:16 | 43.46851 | -1.51253 | 233 ft | 19 kts | 89° |
| 2026-05-08 08:16 | 43.46854 | -1.51104 | 234 ft | 8 kts | 88° |
| 2026-05-08 08:16 | 43.46868 | -1.51030 | 239 ft | 8 kts | 63° |
| 2026-05-08 08:17 | 43.46870 | -1.50967 | 236 ft | 8 kts | 153° |
| 2026-05-08 08:17 | 43.46852 | -1.51000 | 237 ft | 6 kts | 271° |
| 2026-05-08 08:17 | 43.46852 | -1.51165 | 233 ft | 47 kts | 269° |
| 2026-05-08 08:17 | 43.46840 | -1.51997 | 239 ft | 122 kts | 269° |
| 2026-05-08 08:18 | 43.46803 | -1.53433 | 418 ft | 165 kts | 266° |
| 2026-05-08 08:18 | 43.46775 | -1.54984 | 1267 ft | 164 kts | 267° |
| 2026-05-08 08:18 | 43.46840 | -1.56615 | 2011 ft | 174 kts | 269° |
| 2026-05-08 08:18 | 43.46947 | -1.58413 | 2475 ft | 206 kts | 269° |
| 2026-05-08 08:19 | 43.47072 | -1.60453 | 2935 ft | 224 kts | 269° |
| 2026-05-08 08:19 | 43.47214 | -1.62695 | 3337 ft | 241 kts | 269° |
| 2026-05-08 08:19 | 43.47370 | -1.65040 | 3867 ft | 255 kts | 270° |
| 2026-05-08 08:19 | 43.47523 | -1.67544 | 4470 ft | 267 kts | 270° |
| 2026-05-08 08:20 | 43.47661 | -1.70098 | 5448 ft | 267 kts | 270° |
| 2026-05-08 08:20 | 43.47764 | -1.72658 | 6435 ft | 269 kts | 270° |
| 2026-05-08 08:20 | 43.48030 | -1.75233 | 7250 ft | 279 kts | 291° |
| 2026-05-08 08:20 | 43.49247 | -1.77321 | 8093 ft | 288 kts | 326° |
| 2026-05-08 08:21 | 43.51139 | -1.78200 | 8959 ft | 293 kts | 358° |
| 2026-05-08 08:21 | 43.53156 | -1.77839 | 9846 ft | 295 kts | 20° |
| 2026-05-08 08:21 | 43.54988 | -1.76514 | 10445 ft | 307 kts | 40° |
| 2026-05-08 08:21 | 43.56464 | -1.74199 | 10680 ft | 330 kts | 60° |
| 2026-05-08 08:22 | 43.57299 | -1.71227 | 11200 ft | 338 kts | 83° |
| 2026-05-08 08:22 | 43.57535 | -1.67985 | 11980 ft | 343 kts | 86° |
| 2026-05-08 08:22 | 43.57825 | -1.64692 | 12754 ft | 349 kts | 84° |
| 2026-05-08 08:22 | 43.58198 | -1.61359 | 13519 ft | 356 kts | 79° |
| 2026-05-08 08:23 | 43.59190 | -1.58208 | 14188 ft | 365 kts | 55° |
| 2026-05-08 08:23 | 43.60835 | -1.55539 | 15028 ft | 365 kts | 48° |
| 2026-05-08 08:23 | 43.62581 | -1.52979 | 15813 ft | 368 kts | 47° |
| 2026-05-08 08:23 | 43.64360 | -1.50413 | 16513 ft | 372 kts | 47° |
| 2026-05-08 08:24 | 43.66158 | -1.47807 | 17217 ft | 377 kts | 47° |
| 2026-05-08 08:24 | 43.67964 | -1.45162 | 17939 ft | 380 kts | 48° |
| 2026-05-08 08:24 | 43.69782 | -1.42476 | 18603 ft | 384 kts | 48° |
| 2026-05-08 08:24 | 43.71608 | -1.39760 | 19185 ft | 388 kts | 48° |
| 2026-05-08 08:25 | 43.73455 | -1.37003 | 19769 ft | 393 kts | 48° |
| 2026-05-08 08:25 | 43.75318 | -1.34220 | 20350 ft | 397 kts | 48° |
| 2026-05-08 08:25 | 43.77201 | -1.31404 | 20928 ft | 401 kts | 47° |
| 2026-05-08 08:25 | 43.79105 | -1.28554 | 21497 ft | 405 kts | 47° |
| 2026-05-08 08:26 | 43.81078 | -1.25754 | 22052 ft | 409 kts | 43° |
| 2026-05-08 08:26 | 43.83212 | -1.23115 | 22608 ft | 413 kts | 40° |
| 2026-05-08 08:26 | 43.85421 | -1.20531 | 23148 ft | 417 kts | 39° |
| 2026-05-08 08:26 | 43.87659 | -1.17939 | 23653 ft | 421 kts | 39° |
| 2026-05-08 08:27 | 43.89908 | -1.15315 | 24099 ft | 425 kts | 40° |
| 2026-05-08 08:27 | 43.92165 | -1.12649 | 24557 ft | 428 kts | 39° |
| 2026-05-08 08:27 | 43.94427 | -1.09950 | 25004 ft | 430 kts | 40° |
| 2026-05-08 08:27 | 43.96698 | -1.07221 | 25433 ft | 434 kts | 40° |
| 2026-05-08 08:28 | 43.98981 | -1.04468 | 25876 ft | 437 kts | 40° |
| 2026-05-08 08:28 | 44.01283 | -1.01683 | 26300 ft | 440 kts | 40° |
| 2026-05-08 08:28 | 44.03593 | -0.98886 | 26740 ft | 442 kts | 39° |
| 2026-05-08 08:28 | 44.05913 | -0.96072 | 27203 ft | 444 kts | 39° |
| 2026-05-08 08:29 | 44.08250 | -0.93238 | 27602 ft | 447 kts | 39° |
| 2026-05-08 08:29 | 44.10601 | -0.90383 | 27979 ft | 450 kts | 39° |
| 2026-05-08 08:29 | 44.12965 | -0.87510 | 28361 ft | 453 kts | 39° |
| 2026-05-08 08:29 | 44.15381 | -0.84569 | 28757 ft | 456 kts | 39° |
| 2026-05-08 08:30 | 44.17772 | -0.81657 | 29130 ft | 459 kts | 39° |
| 2026-05-08 08:30 | 44.20148 | -0.78758 | 29483 ft | 461 kts | 39° |
| 2026-05-08 08:30 | 44.25031 | -0.72793 | 30257 ft | 464 kts | 38° |
| 2026-05-08 08:31 | 44.27572 | -0.70074 | 30668 ft | 459 kts | 26° |
| 2026-05-08 08:31 | 44.30465 | -0.68487 | 31040 ft | 450 kts | 9° |
| 2026-05-08 08:31 | 44.33521 | -0.67625 | 31474 ft | 447 kts | 7° |
| 2026-05-08 08:31 | 44.36579 | -0.66846 | 31827 ft | 448 kts | 6° |
| 2026-05-08 08:32 | 44.39648 | -0.66080 | 32169 ft | 448 kts | 6° |
| 2026-05-08 08:32 | 44.42758 | -0.65293 | 32588 ft | 447 kts | 6° |
| 2026-05-08 08:32 | 44.45798 | -0.64502 | 33142 ft | 443 kts | 6° |
| 2026-05-08 08:32 | 44.48822 | -0.63700 | 33560 ft | 442 kts | 6° |
| 2026-05-08 08:33 | 44.51847 | -0.62887 | 33854 ft | 443 kts | 6° |
| 2026-05-08 08:33 | 44.54880 | -0.62066 | 34127 ft | 444 kts | 6° |
| 2026-05-08 08:33 | 44.57916 | -0.61239 | 34450 ft | 444 kts | 6° |
| 2026-05-08 08:33 | 44.60939 | -0.60413 | 34784 ft | 442 kts | 6° |
| 2026-05-08 08:34 | 44.64002 | -0.59575 | 35135 ft | 441 kts | 6° |
| 2026-05-08 08:34 | 44.67052 | -0.58740 | 35441 ft | 441 kts | 6° |
| 2026-05-08 08:34 | 44.70065 | -0.57915 | 35706 ft | 441 kts | 6° |
| 2026-05-08 08:34 | 44.73078 | -0.57090 | 35942 ft | 442 kts | 6° |
| 2026-05-08 08:35 | 44.78140 | -0.55705 | 35945 ft | 448 kts | 6° |
| 2026-05-08 08:35 | 44.85252 | -0.53747 | 35929 ft | 441 kts | 6° |
| 2026-05-08 08:36 | 44.90247 | -0.52369 | 35947 ft | 439 kts | 6° |
| 2026-05-08 08:36 | 44.96292 | -0.50702 | 35950 ft | 440 kts | 6° |
| 2026-05-08 08:37 | 45.02311 | -0.49039 | 35968 ft | 441 kts | 6° |
| 2026-05-08 08:37 | 45.08295 | -0.47381 | 35952 ft | 441 kts | 6° |
| 2026-05-08 08:38 | 45.14322 | -0.45706 | 35956 ft | 441 kts | 6° |
| 2026-05-08 08:38 | 45.20391 | -0.44017 | 35972 ft | 441 kts | 6° |
| 2026-05-08 08:39 | 45.26415 | -0.42336 | 35946 ft | 441 kts | 6° |
| 2026-05-08 08:39 | 45.32432 | -0.40654 | 35954 ft | 440 kts | 6° |
| 2026-05-08 08:40 | 45.38431 | -0.38972 | 35960 ft | 439 kts | 6° |
| 2026-05-08 08:40 | 45.44417 | -0.37291 | 35966 ft | 438 kts | 6° |
| 2026-05-08 08:41 | 45.50385 | -0.35612 | 35960 ft | 437 kts | 6° |
| 2026-05-08 08:41 | 45.56340 | -0.33933 | 35965 ft | 436 kts | 6° |
| 2026-05-08 08:42 | 45.62292 | -0.32282 | 35973 ft | 433 kts | 2° |
| 2026-05-08 08:42 | 45.65248 | -0.32340 | 35962 ft | 420 kts | 343° |
| 2026-05-08 08:42 | 45.67976 | -0.33617 | 35966 ft | 410 kts | 328° |
| 2026-05-08 08:43 | 45.72519 | -0.38319 | 35956 ft | 403 kts | 317° |
| 2026-05-08 08:43 | 45.76880 | -0.43371 | 35956 ft | 404 kts | 317° |
| 2026-05-08 08:44 | 45.81299 | -0.48442 | 35956 ft | 405 kts | 317° |
| 2026-05-08 08:44 | 45.85726 | -0.53479 | 35956 ft | 406 kts | 318° |
| 2026-05-08 08:45 | 45.90165 | -0.58523 | 35958 ft | 407 kts | 318° |
| 2026-05-08 08:45 | 45.94612 | -0.63584 | 35956 ft | 408 kts | 318° |
| 2026-05-08 08:46 | 45.99057 | -0.68655 | 35966 ft | 408 kts | 318° |
| 2026-05-08 08:46 | 46.03505 | -0.73741 | 35957 ft | 408 kts | 318° |
| 2026-05-08 08:47 | 46.07973 | -0.78861 | 35956 ft | 408 kts | 318° |
| 2026-05-08 08:47 | 46.12408 | -0.83954 | 35960 ft | 407 kts | 317° |
| 2026-05-08 08:48 | 46.16865 | -0.89083 | 35974 ft | 407 kts | 317° |
| 2026-05-08 08:48 | 46.21309 | -0.94145 | 35964 ft | 408 kts | 321° |
| 2026-05-08 08:49 | 46.26253 | -0.98273 | 35965 ft | 411 kts | 328° |
| 2026-05-08 08:49 | 46.31307 | -1.02150 | 35967 ft | 411 kts | 328° |
| 2026-05-08 08:50 | 46.36350 | -1.06055 | 35963 ft | 411 kts | 327° |
| 2026-05-08 08:50 | 46.41375 | -1.09998 | 35960 ft | 411 kts | 327° |
| 2026-05-08 08:51 | 46.46390 | -1.13961 | 35956 ft | 410 kts | 327° |
| 2026-05-08 08:51 | 46.51396 | -1.17931 | 35961 ft | 410 kts | 327° |
| 2026-05-08 08:52 | 46.56434 | -1.21936 | 35974 ft | 410 kts | 327° |
| 2026-05-08 08:52 | 46.61442 | -1.25924 | 35963 ft | 411 kts | 327° |
| 2026-05-08 08:53 | 46.66488 | -1.29951 | 35972 ft | 411 kts | 327° |
| 2026-05-08 08:53 | 46.71498 | -1.33958 | 35965 ft | 411 kts | 327° |
| 2026-05-08 08:54 | 46.76511 | -1.37975 | 35965 ft | 411 kts | 327° |
| 2026-05-08 08:54 | 46.81527 | -1.42004 | 35970 ft | 411 kts | 327° |
| 2026-05-08 08:55 | 46.86542 | -1.46040 | 35964 ft | 412 kts | 327° |
| 2026-05-08 08:55 | 46.91556 | -1.50085 | 35958 ft | 412 kts | 327° |
| 2026-05-08 08:56 | 46.96574 | -1.54142 | 35969 ft | 412 kts | 327° |
| 2026-05-08 08:56 | 47.01628 | -1.58235 | 35947 ft | 412 kts | 327° |
| 2026-05-08 08:57 | 47.06608 | -1.62278 | 35952 ft | 412 kts | 327° |
| 2026-05-08 08:57 | 47.11617 | -1.66353 | 35959 ft | 411 kts | 327° |
| 2026-05-08 08:58 | 47.16618 | -1.70431 | 35970 ft | 411 kts | 327° |
| 2026-05-08 08:58 | 47.21619 | -1.74518 | 35971 ft | 411 kts | 327° |
| 2026-05-08 08:59 | 47.26650 | -1.78638 | 35962 ft | 411 kts | 327° |
| 2026-05-08 08:59 | 47.31683 | -1.82769 | 35961 ft | 411 kts | 327° |
| 2026-05-08 09:00 | 47.36678 | -1.86877 | 35958 ft | 411 kts | 327° |
| 2026-05-08 09:00 | 47.41669 | -1.90992 | 35969 ft | 411 kts | 327° |
| 2026-05-08 09:01 | 47.46658 | -1.95114 | 35966 ft | 411 kts | 327° |
| 2026-05-08 09:01 | 47.51643 | -1.99241 | 35963 ft | 411 kts | 327° |
| 2026-05-08 09:02 | 47.56623 | -2.03373 | 35965 ft | 410 kts | 327° |
| 2026-05-08 09:02 | 47.60756 | -2.06810 | 35970 ft | 410 kts | 327° |
| 2026-05-08 09:03 | 47.65727 | -2.10951 | 35952 ft | 410 kts | 327° |
| 2026-05-08 09:03 | 47.70731 | -2.15130 | 35971 ft | 410 kts | 327° |
| 2026-05-08 09:04 | 47.75707 | -2.19294 | 35981 ft | 411 kts | 327° |
| 2026-05-08 09:04 | 47.80688 | -2.23472 | 35989 ft | 411 kts | 326° |
| 2026-05-08 09:05 | 47.85674 | -2.27663 | 35976 ft | 412 kts | 326° |
| 2026-05-08 09:05 | 47.90666 | -2.31868 | 35986 ft | 412 kts | 326° |
| 2026-05-08 09:06 | 47.95660 | -2.36085 | 35990 ft | 413 kts | 326° |
| 2026-05-08 09:06 | 48.00659 | -2.40316 | 35998 ft | 413 kts | 326° |
| 2026-05-08 09:07 | 48.05695 | -2.44587 | 35996 ft | 413 kts | 326° |
| 2026-05-08 09:07 | 48.10695 | -2.48837 | 35993 ft | 413 kts | 326° |
| 2026-05-08 09:08 | 48.15658 | -2.53064 | 35999 ft | 413 kts | 326° |
| 2026-05-08 09:08 | 48.20680 | -2.57353 | 36007 ft | 413 kts | 326° |
| 2026-05-08 09:09 | 48.25664 | -2.61619 | 35999 ft | 413 kts | 326° |
| 2026-05-08 09:09 | 48.30652 | -2.65897 | 36005 ft | 412 kts | 326° |
| 2026-05-08 09:10 | 48.35632 | -2.70179 | 36003 ft | 412 kts | 326° |
| 2026-05-08 09:10 | 48.40608 | -2.74467 | 36032 ft | 412 kts | 326° |
| 2026-05-08 09:11 | 48.45587 | -2.78767 | 36019 ft | 413 kts | 326° |
| 2026-05-08 09:11 | 48.50564 | -2.83076 | 36014 ft | 412 kts | 326° |
| 2026-05-08 09:12 | 48.55534 | -2.87387 | 36020 ft | 412 kts | 326° |
| 2026-05-08 09:12 | 48.60493 | -2.91699 | 36022 ft | 411 kts | 326° |
| 2026-05-08 09:13 | 48.65452 | -2.96022 | 36022 ft | 411 kts | 326° |
| 2026-05-08 09:13 | 48.70404 | -3.00348 | 36023 ft | 411 kts | 326° |
| 2026-05-08 09:14 | 48.75354 | -3.04683 | 36020 ft | 411 kts | 326° |
| 2026-05-08 09:14 | 48.80301 | -3.09024 | 36026 ft | 411 kts | 326° |
| 2026-05-08 09:15 | 48.85246 | -3.13374 | 36022 ft | 411 kts | 326° |
| 2026-05-08 09:15 | 48.90198 | -3.17741 | 36019 ft | 412 kts | 326° |
| 2026-05-08 09:16 | 48.95157 | -3.22123 | 36019 ft | 413 kts | 326° |
| 2026-05-08 09:16 | 49.00122 | -3.26522 | 36024 ft | 413 kts | 326° |
| 2026-05-08 09:17 | 49.05093 | -3.30935 | 36037 ft | 414 kts | 326° |
| 2026-05-08 09:17 | 49.10104 | -3.35395 | 36031 ft | 414 kts | 326° |
| 2026-05-08 09:18 | 49.15084 | -3.39837 | 36018 ft | 414 kts | 326° |
| 2026-05-08 09:18 | 49.20059 | -3.44286 | 36019 ft | 414 kts | 326° |
| 2026-05-08 09:19 | 49.25028 | -3.48741 | 36022 ft | 414 kts | 326° |
| 2026-05-08 09:19 | 49.29990 | -3.53197 | 36027 ft | 413 kts | 325° |
| 2026-05-08 09:20 | 49.35176 | -3.57042 | 36032 ft | 417 kts | 335° |
| 2026-05-08 09:20 | 49.40614 | -3.60039 | 36023 ft | 418 kts | 336° |
| 2026-05-08 09:21 | 49.46090 | -3.63076 | 36026 ft | 418 kts | 335° |
| 2026-05-08 09:23 | 49.65218 | -3.74030 | 36034 ft | 420 kts | 335° |
| 2026-05-08 09:23 | 49.70973 | -3.76168 | 36048 ft | 430 kts | 351° |
| 2026-05-08 09:24 | 49.77000 | -3.75816 | 36037 ft | 436 kts | 0° |
| 2026-05-08 09:24 | 49.83052 | -3.74985 | 36032 ft | 436 kts | 0° |
| 2026-05-08 09:25 | 49.89099 | -3.74194 | 36030 ft | 436 kts | 360° |
| 2026-05-08 09:25 | 49.95155 | -3.73455 | 36041 ft | 436 kts | 360° |
| 2026-05-08 09:26 | 50.01207 | -3.72733 | 36029 ft | 436 kts | 360° |
| 2026-05-08 09:26 | 50.07258 | -3.72011 | 36033 ft | 436 kts | 360° |
| 2026-05-08 09:27 | 50.13304 | -3.71286 | 36033 ft | 435 kts | 360° |
| 2026-05-08 09:27 | 50.19343 | -3.70559 | 36036 ft | 435 kts | 360° |
| 2026-05-08 09:28 | 50.25385 | -3.69829 | 36033 ft | 435 kts | 360° |
| 2026-05-08 09:28 | 50.31418 | -3.69099 | 36030 ft | 435 kts | 360° |
| 2026-05-08 09:29 | 50.37444 | -3.68370 | 36049 ft | 434 kts | 359° |
| 2026-05-08 09:29 | 50.43343 | -3.69203 | 36032 ft | 421 kts | 340° |
| 2026-05-08 09:30 | 50.48787 | -3.72348 | 36024 ft | 416 kts | 333° |
| 2026-05-08 09:30 | 50.54144 | -3.75764 | 36035 ft | 415 kts | 333° |
| 2026-05-08 09:31 | 50.59515 | -3.79159 | 36045 ft | 416 kts | 333° |
| 2026-05-08 09:31 | 50.64895 | -3.82527 | 36030 ft | 417 kts | 334° |
| 2026-05-08 09:32 | 50.70305 | -3.85906 | 36024 ft | 418 kts | 334° |
| 2026-05-08 09:32 | 50.75714 | -3.89289 | 36027 ft | 419 kts | 334° |
| 2026-05-08 09:33 | 50.81131 | -3.92687 | 36022 ft | 419 kts | 334° |
| 2026-05-08 09:33 | 50.86557 | -3.96099 | 36031 ft | 420 kts | 333° |
| 2026-05-08 09:34 | 50.91990 | -3.99524 | 36022 ft | 420 kts | 333° |
| 2026-05-08 09:34 | 50.97420 | -4.02956 | 36022 ft | 420 kts | 333° |
| 2026-05-08 09:35 | 51.02852 | -4.06398 | 36024 ft | 420 kts | 333° |
| 2026-05-08 09:35 | 51.08274 | -4.09843 | 36027 ft | 419 kts | 333° |
| 2026-05-08 09:36 | 51.13690 | -4.13292 | 36032 ft | 419 kts | 333° |
| 2026-05-08 09:36 | 51.19102 | -4.16748 | 36030 ft | 419 kts | 333° |
| 2026-05-08 09:37 | 51.24507 | -4.20209 | 36027 ft | 418 kts | 333° |
| 2026-05-08 09:37 | 51.29904 | -4.23673 | 36032 ft | 418 kts | 333° |
| 2026-05-08 09:38 | 51.34390 | -4.26559 | 36029 ft | 418 kts | 333° |
| 2026-05-08 09:38 | 51.39780 | -4.30034 | 36035 ft | 417 kts | 333° |
| 2026-05-08 09:39 | 51.45121 | -4.33680 | 36042 ft | 418 kts | 330° |
| 2026-05-08 09:39 | 51.50389 | -4.37739 | 36060 ft | 422 kts | 329° |
| 2026-05-08 09:40 | 51.55691 | -4.41849 | 36046 ft | 424 kts | 329° |
| 2026-05-08 09:40 | 51.61023 | -4.45940 | 36041 ft | 425 kts | 329° |
| 2026-05-08 09:41 | 51.66361 | -4.50028 | 36043 ft | 424 kts | 329° |
| 2026-05-08 09:41 | 51.71672 | -4.54106 | 36040 ft | 422 kts | 329° |
| 2026-05-08 09:42 | 51.76816 | -4.58552 | 35724 ft | 415 kts | 319° |
| 2026-05-08 09:42 | 51.78990 | -4.61502 | 35441 ft | 402 kts | 310° |
| 2026-05-08 09:42 | 51.80820 | -4.64858 | 35077 ft | 395 kts | 305° |
| 2026-05-08 09:42 | 51.82540 | -4.68278 | 34707 ft | 391 kts | 304° |
| 2026-05-08 09:43 | 51.84239 | -4.71679 | 34336 ft | 387 kts | 304° |
| 2026-05-08 09:43 | 51.85927 | -4.75050 | 33962 ft | 384 kts | 304° |
| 2026-05-08 09:43 | 51.87606 | -4.78383 | 33529 ft | 381 kts | 305° |
| 2026-05-08 09:43 | 51.89292 | -4.81717 | 33158 ft | 376 kts | 305° |
| 2026-05-08 09:44 | 51.90946 | -4.84984 | 32778 ft | 373 kts | 305° |
| 2026-05-08 09:44 | 51.92587 | -4.88224 | 32417 ft | 370 kts | 304° |
| 2026-05-08 09:44 | 51.94220 | -4.91453 | 32048 ft | 367 kts | 304° |
| 2026-05-08 09:44 | 51.95831 | -4.94638 | 31694 ft | 364 kts | 304° |
| 2026-05-08 09:45 | 51.97431 | -4.97808 | 31328 ft | 362 kts | 304° |
| 2026-05-08 09:45 | 51.99016 | -5.00952 | 30973 ft | 359 kts | 304° |
| 2026-05-08 09:45 | 52.00696 | -5.03959 | 30616 ft | 362 kts | 312° |
| 2026-05-08 09:45 | 52.02673 | -5.06527 | 30211 ft | 367 kts | 320° |
| 2026-05-08 09:46 | 52.04917 | -5.08585 | 29776 ft | 371 kts | 327° |
| 2026-05-08 09:46 | 52.07225 | -5.10451 | 29361 ft | 369 kts | 328° |
| 2026-05-08 09:46 | 52.09527 | -5.12280 | 28967 ft | 366 kts | 328° |
| 2026-05-08 09:46 | 52.11799 | -5.14090 | 28624 ft | 362 kts | 328° |
| 2026-05-08 09:47 | 52.14051 | -5.15899 | 28256 ft | 359 kts | 328° |
| 2026-05-08 09:47 | 52.16277 | -5.17701 | 27900 ft | 356 kts | 328° |
| 2026-05-08 09:47 | 52.18489 | -5.19502 | 27565 ft | 354 kts | 327° |
| 2026-05-08 09:47 | 52.20678 | -5.21291 | 27204 ft | 351 kts | 328° |
| 2026-05-08 09:48 | 52.22855 | -5.23076 | 26850 ft | 349 kts | 328° |
| 2026-05-08 09:48 | 52.25020 | -5.24852 | 26506 ft | 347 kts | 328° |
| 2026-05-08 09:48 | 52.27200 | -5.26644 | 26156 ft | 345 kts | 328° |
| 2026-05-08 09:48 | 52.29312 | -5.28382 | 25819 ft | 343 kts | 328° |
| 2026-05-08 09:49 | 52.31468 | -5.30157 | 25473 ft | 342 kts | 328° |
| 2026-05-08 09:49 | 52.33587 | -5.31904 | 25137 ft | 340 kts | 328° |
| 2026-05-08 09:49 | 52.35696 | -5.33643 | 24801 ft | 339 kts | 329° |
| 2026-05-08 09:49 | 52.37797 | -5.35379 | 24466 ft | 338 kts | 329° |
| 2026-05-08 09:50 | 52.39897 | -5.37114 | 24134 ft | 337 kts | 329° |
| 2026-05-08 09:50 | 52.41994 | -5.38852 | 23611 ft | 343 kts | 329° |
| 2026-05-08 09:50 | 52.44134 | -5.40628 | 23127 ft | 345 kts | 329° |
| 2026-05-08 09:50 | 52.46272 | -5.42402 | 22726 ft | 344 kts | 329° |
| 2026-05-08 09:51 | 52.48400 | -5.44168 | 22363 ft | 342 kts | 329° |
| 2026-05-08 09:51 | 52.50512 | -5.45924 | 22016 ft | 340 kts | 329° |
| 2026-05-08 09:51 | 52.52613 | -5.47672 | 21673 ft | 337 kts | 329° |
| 2026-05-08 09:51 | 52.54699 | -5.49408 | 21341 ft | 335 kts | 330° |
| 2026-05-08 09:52 | 52.56851 | -5.50902 | 20998 ft | 336 kts | 338° |
| 2026-05-08 09:52 | 52.59078 | -5.52055 | 20645 ft | 336 kts | 340° |
| 2026-05-08 09:52 | 52.61317 | -5.53128 | 20304 ft | 334 kts | 341° |
| 2026-05-08 09:52 | 52.63541 | -5.54203 | 19971 ft | 333 kts | 340° |
| 2026-05-08 09:53 | 52.65753 | -5.55303 | 19652 ft | 331 kts | 340° |
| 2026-05-08 09:53 | 52.67952 | -5.56421 | 19320 ft | 330 kts | 340° |
| 2026-05-08 09:53 | 52.70173 | -5.57560 | 18998 ft | 329 kts | 340° |
| 2026-05-08 09:53 | 52.72353 | -5.58682 | 18649 ft | 329 kts | 340° |
| 2026-05-08 09:54 | 52.74536 | -5.59808 | 18279 ft | 329 kts | 340° |
| 2026-05-08 09:54 | 52.76716 | -5.60934 | 17923 ft | 327 kts | 340° |
| 2026-05-08 09:54 | 52.78888 | -5.62057 | 17566 ft | 326 kts | 340° |
| 2026-05-08 09:54 | 52.81046 | -5.63173 | 17233 ft | 324 kts | 340° |
| 2026-05-08 09:55 | 52.83186 | -5.64281 | 16913 ft | 322 kts | 340° |
| 2026-05-08 09:55 | 52.85314 | -5.65385 | 16590 ft | 320 kts | 340° |
| 2026-05-08 09:55 | 52.87432 | -5.66484 | 16279 ft | 318 kts | 340° |
| 2026-05-08 09:55 | 52.89537 | -5.67577 | 15957 ft | 316 kts | 340° |
| 2026-05-08 09:56 | 52.91627 | -5.68664 | 15649 ft | 314 kts | 340° |
| 2026-05-08 09:56 | 52.93708 | -5.69747 | 15337 ft | 312 kts | 340° |
| 2026-05-08 09:56 | 52.95774 | -5.70824 | 15033 ft | 311 kts | 341° |
| 2026-05-08 09:56 | 52.97830 | -5.71897 | 14720 ft | 309 kts | 341° |
| 2026-05-08 09:57 | 53.01920 | -5.74034 | 14104 ft | 307 kts | 341° |
| 2026-05-08 09:57 | 53.03951 | -5.75096 | 13793 ft | 305 kts | 341° |
| 2026-05-08 09:57 | 53.05971 | -5.76154 | 13449 ft | 304 kts | 341° |
| 2026-05-08 09:58 | 53.07985 | -5.77209 | 13123 ft | 302 kts | 341° |
| 2026-05-08 09:58 | 53.09984 | -5.78258 | 12813 ft | 301 kts | 341° |
| 2026-05-08 09:58 | 53.11967 | -5.79332 | 12513 ft | 298 kts | 335° |
| 2026-05-08 09:58 | 53.13625 | -5.81269 | 12204 ft | 289 kts | 307° |
| 2026-05-08 09:59 | 53.14691 | -5.84047 | 11914 ft | 283 kts | 292° |
| 2026-05-08 09:59 | 53.15489 | -5.87030 | 11617 ft | 281 kts | 290° |
| 2026-05-08 09:59 | 53.16243 | -5.90027 | 11315 ft | 280 kts | 290° |
| 2026-05-08 09:59 | 53.16997 | -5.93029 | 11014 ft | 279 kts | 290° |
| 2026-05-08 10:00 | 53.17748 | -5.95992 | 10730 ft | 278 kts | 290° |
| 2026-05-08 10:00 | 53.18502 | -5.98944 | 10432 ft | 277 kts | 290° |
| 2026-05-08 10:00 | 53.19260 | -6.01892 | 10179 ft | 274 kts | 290° |
| 2026-05-08 10:00 | 53.20002 | -6.04766 | 10050 ft | 268 kts | 290° |
| 2026-05-08 10:01 | 53.20738 | -6.07617 | 9748 ft | 267 kts | 290° |
| 2026-05-08 10:01 | 53.21473 | -6.10462 | 9461 ft | 266 kts | 290° |
| 2026-05-08 10:01 | 53.22204 | -6.13291 | 9181 ft | 265 kts | 290° |
| 2026-05-08 10:01 | 53.22928 | -6.16100 | 8907 ft | 263 kts | 290° |
| 2026-05-08 10:02 | 53.23650 | -6.18899 | 8642 ft | 261 kts | 291° |
| 2026-05-08 10:02 | 53.24365 | -6.21678 | 8371 ft | 260 kts | 291° |
| 2026-05-08 10:02 | 53.25086 | -6.24484 | 8104 ft | 259 kts | 291° |
| 2026-05-08 10:02 | 53.25802 | -6.27280 | 7819 ft | 257 kts | 291° |
| 2026-05-08 10:03 | 53.26503 | -6.30010 | 7577 ft | 255 kts | 291° |
| 2026-05-08 10:03 | 53.27198 | -6.32725 | 7387 ft | 250 kts | 291° |
| 2026-05-08 10:03 | 53.27872 | -6.35356 | 7276 ft | 243 kts | 291° |
| 2026-05-08 10:03 | 53.28526 | -6.37918 | 7170 ft | 237 kts | 291° |
| 2026-05-08 10:04 | 53.29164 | -6.40416 | 7071 ft | 230 kts | 291° |
| 2026-05-08 10:04 | 53.29785 | -6.42856 | 6897 ft | 229 kts | 290° |
| 2026-05-08 10:04 | 53.30407 | -6.45300 | 6778 ft | 227 kts | 290° |
| 2026-05-08 10:04 | 53.31024 | -6.47727 | 6601 ft | 227 kts | 290° |
| 2026-05-08 10:05 | 53.31643 | -6.50163 | 6430 ft | 228 kts | 290° |
| 2026-05-08 10:05 | 53.32263 | -6.52607 | 6220 ft | 228 kts | 290° |
| 2026-05-08 10:05 | 53.32881 | -6.55044 | 6055 ft | 228 kts | 291° |
| 2026-05-08 10:05 | 53.33500 | -6.57485 | 5848 ft | 227 kts | 291° |
| 2026-05-08 10:06 | 53.34116 | -6.59918 | 5680 ft | 227 kts | 291° |
| 2026-05-08 10:06 | 53.34738 | -6.62378 | 5499 ft | 226 kts | 291° |
| 2026-05-08 10:06 | 53.35351 | -6.64809 | 5306 ft | 227 kts | 291° |
| 2026-05-08 10:06 | 53.35759 | -6.66418 | 5177 ft | 227 kts | 292° |
| 2026-05-08 10:07 | 53.37152 | -6.68966 | 4919 ft | 228 kts | 338° |
| 2026-05-08 10:07 | 53.38164 | -6.69318 | 4814 ft | 223 kts | 358° |
| 2026-05-08 10:07 | 53.39694 | -6.69188 | 4649 ft | 218 kts | 5° |
| 2026-05-08 10:07 | 53.41184 | -6.68935 | 4483 ft | 213 kts | 6° |
| 2026-05-08 10:08 | 53.42713 | -6.68675 | 4318 ft | 213 kts | 6° |
| 2026-05-08 10:08 | 53.44193 | -6.68203 | 4106 ft | 212 kts | 26° |
| 2026-05-08 10:08 | 53.45220 | -6.66538 | 3940 ft | 207 kts | 69° |
| 2026-05-08 10:08 | 53.45415 | -6.64196 | 3833 ft | 203 kts | 90° |
| 2026-05-08 10:09 | 53.45460 | -6.61779 | 3655 ft | 206 kts | 90° |
| 2026-05-08 10:09 | 53.45459 | -6.59332 | 3499 ft | 208 kts | 94° |
| 2026-05-08 10:09 | 53.45361 | -6.56911 | 3326 ft | 208 kts | 96° |
| 2026-05-08 10:09 | 53.45227 | -6.54515 | 3167 ft | 204 kts | 96° |
| 2026-05-08 10:10 | 53.45087 | -6.52120 | 3026 ft | 199 kts | 97° |
| 2026-05-08 10:10 | 53.44954 | -6.49838 | 2805 ft | 194 kts | 97° |
| 2026-05-08 10:10 | 53.44826 | -6.47620 | 2552 ft | 188 kts | 96° |
| 2026-05-08 10:10 | 53.44705 | -6.45503 | 2301 ft | 176 kts | 96° |
| 2026-05-08 10:11 | 53.44593 | -6.43557 | 2088 ft | 158 kts | 96° |
| 2026-05-08 10:11 | 53.44493 | -6.41796 | 1855 ft | 145 kts | 96° |
| 2026-05-08 10:11 | 53.44398 | -6.40139 | 1671 ft | 143 kts | 96° |
| 2026-05-08 10:11 | 53.44303 | -6.38462 | 1449 ft | 145 kts | 96° |
| 2026-05-08 10:12 | 53.44205 | -6.36797 | 1230 ft | 143 kts | 95° |
| 2026-05-08 10:12 | 53.44118 | -6.35131 | 1019 ft | 143 kts | 95° |
| 2026-05-08 10:12 | 53.44013 | -6.33454 | 864 ft | 146 kts | 95° |
| 2026-05-08 10:12 | 53.43925 | -6.31777 | 677 ft | 143 kts | 92° |
| 2026-05-08 10:13 | 53.43830 | -6.30106 | 475 ft | 142 kts | 94° |
| 2026-05-08 10:13 | 53.43739 | -6.28428 | 288 ft | 146 kts | 94° |
| 2026-05-08 10:13 | 53.43647 | -6.26779 | 215 ft | 126 kts | 97° |
| 2026-05-08 10:13 | 53.43585 | -6.25660 | 208 ft | 64 kts | 95° |
| 2026-05-08 10:14 | 53.43535 | -6.25254 | 212 ft | 22 kts | 113° |
| 2026-05-08 10:14 | 53.43461 | -6.25032 | 217 ft | 14 kts | 120° |
| 2026-05-08 10:14 | 53.43406 | -6.24904 | 210 ft | 13 kts | 110° |
| 2026-05-08 10:14 | 53.43372 | -6.24762 | 210 ft | 13 kts | 113° |
| 2026-05-08 10:15 | 53.43355 | -6.24618 | 210 ft | 13 kts | 94° |